createdAt,value
2018-09-18T00:02:37.363Z,14.5
2018-09-18T00:07:39.690Z,14.4
2018-09-18T00:12:41.964Z,14.4
2018-09-18T00:17:44.195Z,14.3
2018-09-18T00:22:46.496Z,14.3
2018-09-18T00:27:48.840Z,14.3
2018-09-18T00:32:51.098Z,14.3
2018-09-18T00:37:53.462Z,14.3
2018-09-18T00:42:55.672Z,14.2
2018-09-18T00:47:57.908Z,14.3
2018-09-18T00:53:00.281Z,14.3
2018-09-18T00:58:02.539Z,14.4
2018-09-18T01:03:04.795Z,14.3
2018-09-18T01:08:07.119Z,14.4
2018-09-18T01:13:09.490Z,14.4
2018-09-18T01:18:11.684Z,14.5
2018-09-18T01:23:14.157Z,14.5
2018-09-18T01:33:18.628Z,14.6
2018-09-18T01:38:20.989Z,14.6
2018-09-18T01:43:23.202Z,14.6
2018-09-18T01:48:25.453Z,14.5
2018-09-18T01:53:27.823Z,14.5
2018-09-18T01:58:30.022Z,14.5
2018-09-18T02:03:32.354Z,14.5
2018-09-18T02:08:34.604Z,14.5
2018-09-18T02:13:37.107Z,14.5
2018-09-18T02:18:39.206Z,14.5
2018-09-18T02:23:41.568Z,14.4
2018-09-18T02:28:43.890Z,14.4
2018-09-18T02:33:46.113Z,14.4
2018-09-18T02:38:48.372Z,14.3
2018-09-18T02:43:50.723Z,14.3
2018-09-18T02:48:52.993Z,14.2
2018-09-18T02:53:55.376Z,14.2
2018-09-18T02:58:57.645Z,14.2
2018-09-18T03:04:00.056Z,14.2
2018-09-18T03:09:02.202Z,14.2
2018-09-18T03:14:04.562Z,14.1
2018-09-18T03:19:06.779Z,14.1
2018-09-18T03:24:08.998Z,14.2
2018-09-18T03:29:11.361Z,14.1
2018-09-18T03:34:13.619Z,14.2
2018-09-18T03:39:15.862Z,14.2
2018-09-18T03:44:18.252Z,14.3
2018-09-18T03:49:20.561Z,14.4
2018-09-18T03:54:22.800Z,14.4
2018-09-18T03:59:25.113Z,14.4
2018-09-18T04:04:27.878Z,14.4
2018-09-18T04:09:29.697Z,14.5
2018-09-18T04:14:32.164Z,14.5
2018-09-18T04:19:34.321Z,14.7
2018-09-18T04:24:36.831Z,14.7
2018-09-18T04:29:38.908Z,14.7
2018-09-18T04:34:41.206Z,14.8
2018-09-18T04:39:43.477Z,14.8
2018-09-18T04:44:45.694Z,14.9
2018-09-18T04:49:48.038Z,15
2018-09-18T04:54:50.431Z,15.1
2018-09-18T04:59:52.579Z,15.1
2018-09-18T05:04:55.172Z,15.3
2018-09-18T05:09:57.183Z,15.5
2018-09-18T05:14:59.592Z,15.7
2018-09-18T05:20:01.815Z,15.8
2018-09-18T05:25:04.056Z,15.9
2018-09-18T05:30:06.481Z,15.9
2018-09-18T05:35:08.740Z,16
2018-09-18T05:40:11.034Z,16
2018-09-18T05:45:13.384Z,16
2018-09-18T05:50:15.635Z,16.1
2018-09-18T05:55:17.950Z,16.1
2018-09-18T06:00:20.162Z,16.200001
2018-09-18T06:05:22.465Z,16.299999
2018-09-18T06:10:24.755Z,16.5
2018-09-18T06:15:27.102Z,16.700001
2018-09-18T06:20:29.331Z,16.799999
2018-09-18T06:25:31.656Z,17
2018-09-18T06:30:33.987Z,17.200001
2018-09-18T06:35:36.149Z,17.4
2018-09-18T06:40:38.565Z,17.6
2018-09-18T06:45:41.016Z,17.799999
2018-09-18T06:50:43.113Z,18
2018-09-18T06:55:45.434Z,18.5
2018-09-18T07:00:47.790Z,18.799999
2018-09-18T07:05:49.966Z,19.200001
2018-09-18T07:10:52.267Z,19.6
2018-09-18T07:15:54.641Z,20
2018-09-18T07:20:56.886Z,20.4
2018-09-18T07:25:59.148Z,20.700001
2018-09-18T07:31:01.502Z,20.9
2018-09-18T07:36:03.870Z,21.200001
2018-09-18T07:41:06.130Z,21.299999
2018-09-18T07:46:08.286Z,21.1
2018-09-18T07:51:10.639Z,21
2018-09-18T07:56:12.936Z,20.9
2018-09-18T08:01:15.392Z,20.9
2018-09-18T08:06:17.541Z,20.9
2018-09-18T08:11:19.734Z,21
2018-09-18T08:16:22.117Z,21
2018-09-18T08:21:24.546Z,20.9
2018-09-18T08:26:26.734Z,21
2018-09-18T08:31:29.038Z,21.1
2018-09-18T08:36:31.420Z,21.200001
2018-09-18T08:41:33.692Z,21.4
2018-09-18T08:46:35.870Z,21.6
2018-09-18T08:51:38.225Z,21.799999
2018-09-18T08:56:40.519Z,22.1
2018-09-18T09:01:42.838Z,22.4
2018-09-18T09:06:45.017Z,22.700001
2018-09-18T09:11:47.322Z,22.799999
2018-09-18T09:16:49.581Z,23
2018-09-18T09:21:52.013Z,23.200001
2018-09-18T09:26:54.365Z,23.200001
2018-09-18T09:31:56.499Z,23.299999
2018-09-18T09:36:58.846Z,23.6
2018-09-18T09:42:01.169Z,23.9
2018-09-18T09:47:03.487Z,24
2018-09-18T09:52:05.760Z,24.299999
2018-09-18T09:57:08.031Z,24.4
2018-09-18T10:02:10.389Z,24.799999
2018-09-18T10:07:12.606Z,25.299999
2018-09-18T10:12:14.824Z,25.5
2018-09-18T10:17:17.141Z,25.799999
2018-09-18T10:22:19.481Z,25.9
2018-09-18T10:27:21.740Z,26.299999
2018-09-18T10:32:24.160Z,26.5
2018-09-18T10:37:26.382Z,26.299999
2018-09-18T10:42:28.676Z,26.4
2018-09-18T10:47:31.024Z,26.5
2018-09-18T10:52:33.382Z,26.799999
2018-09-18T10:57:35.610Z,26.9
2018-09-18T11:02:37.893Z,27.299999
2018-09-18T11:07:40.334Z,27.5
2018-09-18T11:12:42.493Z,28
2018-09-18T11:17:44.794Z,28.4
2018-09-18T11:22:47.003Z,28.799999
2018-09-18T11:27:49.403Z,28.4
2018-09-18T11:32:51.866Z,28.6
2018-09-18T11:37:53.884Z,29.200001
2018-09-18T11:42:56.206Z,29.200001
2018-09-18T11:47:58.541Z,29.200001
2018-09-18T11:53:00.924Z,29.5
2018-09-18T11:58:03.136Z,29.5
2018-09-18T12:03:05.388Z,29.200001
2018-09-18T12:08:07.624Z,29.299999
2018-09-18T12:13:09.916Z,29.200001
2018-09-18T12:18:12.274Z,29.299999
2018-09-18T12:23:14.506Z,29.4
2018-09-18T12:28:16.772Z,29.700001
2018-09-18T12:33:19.247Z,30
2018-09-18T12:38:21.430Z,29.799999
2018-09-18T12:43:23.741Z,29.700001
2018-09-18T12:48:25.988Z,29.6
2018-09-18T12:53:28.273Z,29.700001
2018-09-18T12:58:30.725Z,29.799999
2018-09-18T13:03:32.940Z,29.799999
2018-09-18T13:08:35.224Z,29.700001
2018-09-18T13:13:37.578Z,29.799999
2018-09-18T13:18:39.765Z,29.6
2018-09-18T13:23:42.124Z,29.6
2018-09-18T13:28:44.380Z,29.9
2018-09-18T13:33:46.737Z,29.6
2018-09-18T13:38:48.911Z,29.799999
2018-09-18T13:43:51.174Z,30.1
2018-09-18T13:48:53.605Z,29.9
2018-09-18T13:53:55.962Z,29.5
2018-09-18T13:58:58.119Z,29.1
2018-09-18T14:04:00.459Z,28.6
2018-09-18T14:09:02.825Z,28.700001
2018-09-18T14:14:05.197Z,28.700001
2018-09-18T14:19:08.575Z,28.6
2018-09-18T14:24:09.636Z,28.200001
2018-09-18T14:29:11.887Z,27.9
2018-09-18T14:34:14.182Z,27.9
2018-09-18T14:39:16.555Z,27.799999
2018-09-18T14:44:18.798Z,27.700001
2018-09-18T14:49:21.076Z,27.700001
2018-09-18T14:54:23.420Z,27.6
2018-09-18T14:59:25.666Z,27.299999
2018-09-18T15:04:27.949Z,27.200001
2018-09-18T15:09:30.345Z,27
2018-09-18T15:14:32.674Z,27.1
2018-09-18T15:19:34.883Z,27
2018-09-18T15:24:37.337Z,27
2018-09-18T15:29:39.462Z,27.200001
2018-09-18T15:34:41.751Z,27
2018-09-18T15:39:44.148Z,26.799999
2018-09-18T15:44:46.343Z,26.799999
2018-09-18T15:49:48.572Z,26.9
2018-09-18T15:54:50.920Z,27
2018-09-18T15:59:53.272Z,27.799999
2018-09-18T16:04:55.522Z,28
2018-09-18T16:09:57.748Z,28
2018-09-18T16:15:00.137Z,27.799999
2018-09-18T16:20:02.821Z,27.5
2018-09-18T16:25:04.688Z,27.299999
2018-09-18T16:30:06.976Z,26
2018-09-18T16:35:09.412Z,25.200001
2018-09-18T16:40:11.658Z,25.299999
2018-09-18T16:45:13.976Z,24.799999
2018-09-18T16:50:16.212Z,24.4
2018-09-18T16:55:18.487Z,24
2018-09-18T17:00:20.794Z,23.799999
2018-09-18T17:05:23.031Z,23.6
2018-09-18T17:10:25.342Z,23.299999
2018-09-18T17:15:27.609Z,23.1
2018-09-18T17:20:29.849Z,22.9
2018-09-18T17:25:32.202Z,22.700001
2018-09-18T17:30:34.836Z,22.5
2018-09-18T17:35:36.779Z,22.299999
2018-09-18T17:40:39.042Z,22.200001
2018-09-18T17:45:41.539Z,22
2018-09-18T17:50:43.782Z,21.799999
2018-09-18T17:55:45.972Z,21.6
2018-09-18T18:00:48.287Z,21.5
2018-09-18T18:05:51.248Z,21.299999
2018-09-18T18:10:52.960Z,21.200001
2018-09-18T18:15:55.127Z,21.1
2018-09-18T18:20:57.831Z,21
2018-09-18T18:25:59.766Z,20.799999
2018-09-18T18:31:02.140Z,20.799999
2018-09-18T18:36:04.416Z,20.6
2018-09-18T18:41:06.622Z,20.6
2018-09-18T18:46:08.865Z,20.5
2018-09-18T18:51:11.253Z,20.4
2018-09-18T18:56:13.497Z,20.299999
2018-09-18T19:01:15.734Z,20.200001
2018-09-18T19:06:18.178Z,20.1
2018-09-18T19:11:20.349Z,20
2018-09-18T19:16:22.665Z,20
2018-09-18T19:21:24.942Z,19.9
2018-09-18T19:26:27.275Z,19.9
2018-09-18T19:31:29.592Z,19.799999
2018-09-18T19:36:31.861Z,19.799999
2018-09-18T19:41:34.111Z,19.6
2018-09-18T19:46:36.531Z,19.5
2018-09-18T19:51:38.769Z,19.4
2018-09-18T19:56:41.093Z,19.299999
2018-09-18T20:01:43.382Z,19.200001
2018-09-18T20:06:45.589Z,19.1
2018-09-18T20:11:47.922Z,19.1
2018-09-18T20:16:50.261Z,19
2018-09-18T20:21:52.556Z,18.9
2018-09-18T20:26:54.733Z,18.700001
2018-09-18T20:31:57.175Z,18.6
2018-09-18T20:36:59.341Z,18.5
2018-09-18T20:42:01.722Z,18.4
2018-09-18T20:47:04.054Z,18.299999
2018-09-18T20:52:06.257Z,18.299999
2018-09-18T20:57:08.474Z,18.1
2018-09-18T21:02:10.915Z,17.700001
2018-09-18T21:07:13.247Z,17.4
2018-09-18T21:12:15.423Z,17.200001
2018-09-18T21:17:17.650Z,16.9
2018-09-18T21:22:20.421Z,16.700001
2018-09-18T21:27:22.349Z,16.5
2018-09-18T21:32:24.609Z,16.299999
2018-09-18T21:37:26.938Z,16.1
2018-09-18T21:42:29.186Z,16
2018-09-18T21:47:31.552Z,15.9
2018-09-18T21:52:33.886Z,15.7
2018-09-18T21:57:36.106Z,15.6
2018-09-18T22:02:38.339Z,15.6
2018-09-18T22:07:40.635Z,15.7
2018-09-18T22:12:43.166Z,15.7
2018-09-18T22:17:45.316Z,15.7
2018-09-18T22:22:47.542Z,15.8
2018-09-18T22:27:49.840Z,15.8
2018-09-18T22:32:52.168Z,15.9
2018-09-18T22:37:54.441Z,15.9
2018-09-18T22:42:56.702Z,16
2018-09-18T22:47:59.097Z,15.9
2018-09-18T22:53:01.393Z,15.9
2018-09-18T22:58:03.811Z,15.9
2018-09-18T23:03:06.094Z,16
2018-09-18T23:08:08.247Z,16
2018-09-18T23:13:10.605Z,16
2018-09-18T23:18:12.795Z,16
2018-09-18T23:23:15.145Z,15.9
2018-09-18T23:28:17.500Z,15.9
2018-09-18T23:33:19.694Z,15.9
2018-09-18T23:38:21.942Z,15.9
2018-09-18T23:43:24.311Z,15.9
2018-09-18T23:48:26.598Z,15.8
2018-09-18T23:53:28.874Z,15.8
2018-09-18T23:58:31.182Z,15.7
